Time;durP1;ratioP1;P1;durP2;ratioP2;P2;SDS_P1;SDS_P2;PMS_P1;PMS_P2;Temp;Humidity;BMP_temperature;BMP_pressure;BME280_temperature;BME280_humidity;BME280_pressure;Samples;Min_cycle;Max_cycle;Signal;HPM_P1;HPM_P2
2023/04/12 00:00:41;;;;;;;7.30;2.07;;;;;;;4.09;100.00;100694.38;5072574;28;20485;-71
2023/04/12 00:03:09;;;;;;;5.43;1.43;;;;;;;3.99;100.00;100688.94;5081156;28;20794;-71
2023/04/12 00:05:37;;;;;;;6.47;2.23;;;;;;;3.98;100.00;100698.81;5075251;28;20980;-72
2023/04/12 00:08:03;;;;;;;9.23;2.00;;;;;;;3.89;100.00;100692.31;5078705;28;20460;-71
2023/04/12 00:10:30;;;;;;;6.50;2.03;;;;;;;3.99;100.00;100680.91;5075554;28;20602;-71
2023/04/12 00:12:58;;;;;;;8.27;2.40;;;;;;;3.91;100.00;100681.34;5073805;28;20976;-71
2023/04/12 00:15:25;;;;;;;6.03;1.60;;;;;;;3.75;100.00;100683.88;5085970;28;20456;-69
2023/04/12 00:17:51;;;;;;;9.90;1.53;;;;;;;3.73;100.00;100671.81;5084972;28;20464;-72
2023/04/12 00:20:18;;;;;;;6.37;1.90;;;;;;;3.57;100.00;100670.84;5074921;28;20909;-71
2023/04/12 00:22:45;;;;;;;11.90;2.10;;;;;;;3.48;100.00;100677.69;5063968;28;20458;-71
2023/04/12 00:25:11;;;;;;;6.07;2.00;;;;;;;3.45;100.00;100672.84;5068903;28;20489;-71
2023/04/12 00:27:39;;;;;;;12.00;2.10;;;;;;;3.57;100.00;100676.19;5070633;28;20489;-71
2023/04/12 00:30:08;;;;;;;6.53;1.93;;;;;;;3.57;100.00;100673.50;5074369;28;20556;-70
2023/04/12 00:32:35;;;;;;;6.03;1.60;;;;;;;3.53;100.00;100673.19;5074026;28;20540;-71
2023/04/12 00:35:01;;;;;;;5.70;1.90;;;;;;;3.49;100.00;100663.25;5074932;28;20445;-72
2023/04/12 00:37:28;;;;;;;7.20;1.97;;;;;;;3.59;100.00;100667.94;5087050;28;20598;-71
2023/04/12 00:39:55;;;;;;;6.40;2.07;;;;;;;3.46;100.00;100672.59;5079973;28;20465;-71
2023/04/12 00:42:21;;;;;;;5.60;1.60;;;;;;;3.43;100.00;100672.28;5073967;28;21029;-71
2023/04/12 00:44:48;;;;;;;15.13;2.13;;;;;;;3.24;100.00;100677.97;5074419;28;20484;-72
2023/04/12 00:47:16;;;;;;;7.10;2.13;;;;;;;3.22;100.00;100666.69;5082275;28;20519;-71
2023/04/12 00:49:42;;;;;;;7.80;1.97;;;;;;;3.18;100.00;100662.09;5090886;28;20460;-72
2023/04/12 00:52:14;;;;;;;10.40;2.60;;;;;;;3.19;100.00;100664.53;5073388;28;20997;-71
2023/04/12 00:54:42;;;;;;;5.57;1.87;;;;;;;3.18;100.00;100662.91;5074681;28;20432;-71
2023/04/12 00:57:08;;;;;;;7.57;1.77;;;;;;;3.11;100.00;100658.81;5074449;28;20690;-71
2023/04/12 00:59:35;;;;;;;7.80;2.07;;;;;;;3.09;100.00;100651.03;5074204;28;20446;-71
2023/04/12 01:02:02;;;;;;;6.53;1.90;;;;;;;2.96;100.00;100652.22;5073646;28;20488;-71
2023/04/12 01:04:30;;;;;;;8.60;2.33;;;;;;;2.73;100.00;100644.44;5088210;28;21033;-71
2023/04/12 01:07:08;;;;;;;7.43;2.30;;;;;;;2.71;100.00;100649.22;5088503;28;20576;-69
2023/04/12 01:09:43;;;;;;;7.07;2.27;;;;;;;2.59;100.00;100638.63;5073354;28;20464;-71
2023/04/12 01:12:20;;;;;;;12.43;2.53;;;;;;;2.60;100.00;100640.25;5073635;28;20488;-71
2023/04/12 01:14:55;;;;;;;7.00;2.00;;;;;;;2.63;100.00;100638.94;5073394;28;20510;-71
2023/04/12 01:17:26;;;;;;;5.47;1.70;;;;;;;2.65;100.00;100637.63;5071755;28;20448;-72
2023/04/12 01:20:12;;;;;;;9.03;2.50;;;;;;;2.71;100.00;100635.84;5074064;28;20509;-71
2023/04/12 01:22:54;;;;;;;6.77;2.27;;;;;;;2.69;100.00;100633.41;5080228;28;20453;-72
2023/04/12 01:25:38;;;;;;;6.97;1.90;;;;;;;2.72;100.00;100630.25;5073162;28;20468;-71
2023/04/12 01:28:08;;;;;;;6.53;1.90;;;;;;;2.73;100.00;100623.03;5063761;28;20473;-71
2023/04/12 01:30:37;;;;;;;7.93;2.13;;;;;;;2.68;100.00;100625.63;5071144;28;21019;-71
2023/04/12 01:33:06;;;;;;;8.20;2.37;;;;;;;2.53;100.00;100623.59;5059632;28;20527;-71
2023/04/12 01:35:33;;;;;;;5.93;1.53;;;;;;;2.56;100.00;100623.06;5070772;28;20548;-71
2023/04/12 01:38:00;;;;;;;6.20;1.90;;;;;;;2.68;100.00;100626.44;5075485;28;20548;-71
2023/04/12 01:40:30;;;;;;;8.00;2.23;;;;;;;2.73;100.00;100628.38;5073385;28;20465;-72
2023/04/12 01:43:08;;;;;;;6.10;2.10;;;;;;;2.68;100.00;100622.97;5075704;28;20461;-71
2023/04/12 01:45:35;;;;;;;7.70;2.50;;;;;;;2.59;100.00;100617.25;5070851;28;20449;-71
2023/04/12 01:48:04;;;;;;;7.70;2.10;;;;;;;2.50;100.00;100616.03;5053556;28;20569;-71
2023/04/12 01:50:39;;;;;;;6.60;2.13;;;;;;;2.53;100.00;100618.25;5070838;28;20480;-71
2023/04/12 01:53:18;;;;;;;12.43;2.87;;;;;;;2.62;100.00;100608.72;5094168;28;20791;-71
2023/04/12 01:55:45;;;;;;;8.00;1.97;;;;;;;2.47;100.00;100611.19;5078739;28;20493;-70
2023/04/12 01:58:17;;;;;;;6.57;2.10;;;;;;;2.30;100.00;100603.19;5072994;28;20441;-71
2023/04/12 02:00:44;;;;;;;7.13;1.53;;;;;;;2.27;100.00;100607.19;5085472;28;20843;-71
2023/04/12 02:03:12;;;;;;;5.10;1.60;;;;;;;2.13;100.00;100602.44;5079122;28;20533;-71
2023/04/12 02:05:39;;;;;;;8.60;2.10;;;;;;;2.22;100.00;100612.47;5072605;28;20457;-71
2023/04/12 02:08:06;;;;;;;6.70;1.53;;;;;;;2.25;100.00;100611.13;5073333;28;20480;-71
2023/04/12 02:10:35;;;;;;;6.10;1.77;;;;;;;2.27;100.00;100609.03;5072784;28;20485;-70
2023/04/12 02:13:02;;;;;;;8.83;1.70;;;;;;;2.21;100.00;100600.16;5073325;28;20453;-71
2023/04/12 02:15:31;;;;;;;7.13;1.90;;;;;;;2.14;100.00;100601.38;5070683;28;20518;-71
2023/04/12 02:17:59;;;;;;;5.30;1.50;;;;;;;2.11;100.00;100601.84;5072994;28;20957;-70
2023/04/12 02:20:26;;;;;;;8.50;2.00;;;;;;;2.07;100.00;100593.50;5073190;28;20469;-71
2023/04/12 02:22:53;;;;;;;6.50;2.43;;;;;;;2.08;100.00;100588.97;5072457;28;20462;-69
2023/04/12 02:25:19;;;;;;;6.97;2.40;;;;;;;2.10;100.00;100581.53;5073250;28;20452;-69
2023/04/12 02:27:47;;;;;;;5.90;2.07;;;;;;;2.07;100.00;100584.69;5072366;28;20507;-69
2023/04/12 02:30:14;;;;;;;6.73;1.73;;;;;;;2.00;100.00;100582.19;5087023;28;20479;-69
2023/04/12 02:32:45;;;;;;;8.60;2.43;;;;;;;2.06;100.00;100586.56;5080798;28;20460;-69
2023/04/12 02:35:12;;;;;;;8.07;2.30;;;;;;;2.07;100.00;100577.47;5072334;28;20876;-69
2023/04/12 02:37:40;;;;;;;5.80;2.00;;;;;;;2.13;100.00;100576.53;5082457;28;20457;-69
2023/04/12 02:40:09;;;;;;;8.53;2.37;;;;;;;1.99;100.00;100575.22;5075841;28;20468;-69
2023/04/12 02:42:36;;;;;;;6.50;2.07;;;;;;;1.97;100.00;100572.81;5071511;28;20461;-68
2023/04/12 02:45:02;;;;;;;6.50;2.10;;;;;;;1.93;100.00;100566.31;5074165;28;20966;-69
2023/04/12 02:47:29;;;;;;;5.83;1.87;;;;;;;1.82;100.00;100563.75;5077995;28;20488;-69
2023/04/12 02:49:57;;;;;;;6.63;2.27;;;;;;;1.83;100.00;100566.19;5080472;28;21018;-69
2023/04/12 02:52:24;;;;;;;6.10;2.03;;;;;;;1.83;100.00;100554.69;5072268;28;20459;-69
2023/04/12 02:54:51;;;;;;;8.33;2.17;;;;;;;1.82;100.00;100553.88;5076551;28;20459;-69
2023/04/12 02:57:19;;;;;;;5.90;1.93;;;;;;;1.81;100.00;100556.78;5072033;28;20536;-69
2023/04/12 02:59:46;;;;;;;6.30;1.77;;;;;;;1.76;100.00;100550.31;5077224;28;20456;-69
2023/04/12 03:02:13;;;;;;;7.70;2.47;;;;;;;1.78;100.00;100552.75;5075116;28;20461;-69
2023/04/12 03:04:39;;;;;;;6.93;1.83;;;;;;;1.74;100.00;100547.09;5070136;28;20464;-69
2023/04/12 03:07:07;;;;;;;7.83;2.20;;;;;;;1.72;100.00;100543.84;5073456;28;20487;-69
2023/04/12 03:09:34;;;;;;;7.27;2.27;;;;;;;1.74;100.00;100541.75;5087341;28;20517;-69
2023/04/12 03:12:02;;;;;;;7.97;2.17;;;;;;;1.77;100.00;100533.25;5096772;28;20437;-69
2023/04/12 03:14:28;;;;;;;7.17;2.60;;;;;;;1.84;100.00;100529.59;5076019;28;20457;-69
2023/04/12 03:16:55;;;;;;;6.50;2.23;;;;;;;1.89;100.00;100535.00;5070263;28;20438;-69
2023/04/12 03:19:21;;;;;;;6.57;2.23;;;;;;;1.81;100.00;100527.41;5064758;28;20524;-69
2023/04/12 03:21:48;;;;;;;6.67;2.17;;;;;;;1.83;100.00;100531.47;5076299;28;20508;-69
2023/04/12 03:24:16;;;;;;;6.30;2.17;;;;;;;1.81;100.00;100522.88;5075689;28;20493;-70
2023/04/12 03:26:43;;;;;;;7.33;1.83;;;;;;;1.90;100.00;100512.59;5076022;28;20484;-69
2023/04/12 03:29:10;;;;;;;6.00;1.90;;;;;;;1.90;100.00;100517.94;5075303;28;20461;-69
2023/04/12 03:31:36;;;;;;;7.57;2.10;;;;;;;1.74;100.00;100512.38;5092338;28;20480;-69
2023/04/12 03:34:03;;;;;;;6.80;2.30;;;;;;;1.57;100.00;100506.25;5079951;28;20464;-69
2023/04/12 03:36:30;;;;;;;7.83;2.67;;;;;;;1.67;100.00;100502.91;5075743;28;20516;-69
2023/04/12 03:38:56;;;;;;;7.40;2.57;;;;;;;1.62;100.00;100492.97;5075845;28;20475;-69
2023/04/12 03:41:25;;;;;;;8.70;2.23;;;;;;;1.57;100.00;100492.88;5075719;28;20472;-69
2023/04/12 03:43:52;;;;;;;6.40;2.17;;;;;;;1.49;100.00;100495.97;5075070;28;20546;-69
2023/04/12 03:46:18;;;;;;;6.20;2.03;;;;;;;1.44;100.00;100485.22;5077821;28;20484;-68
2023/04/12 03:48:45;;;;;;;12.90;3.10;;;;;;;1.51;100.00;100480.53;5074936;28;20534;-69
2023/04/12 03:51:12;;;;;;;7.13;2.23;;;;;;;1.48;100.00;100483.69;5075404;28;20575;-69
2023/04/12 03:53:39;;;;;;;10.23;2.90;;;;;;;1.38;100.00;100467.53;5075034;28;20536;-69
2023/04/12 03:56:06;;;;;;;6.10;1.83;;;;;;;1.37;100.00;100476.53;5075664;28;20437;-69
2023/04/12 03:58:34;;;;;;;7.47;1.87;;;;;;;1.35;100.00;100470.66;5077497;28;20461;-69
2023/04/12 04:01:02;;;;;;;7.60;2.93;;;;;;;1.43;100.00;100470.25;5081425;28;20559;-69
2023/04/12 04:03:29;;;;;;;6.90;2.00;;;;;;;1.47;100.00;100474.06;5074779;28;20488;-69
2023/04/12 04:05:56;;;;;;;7.60;2.37;;;;;;;1.60;100.00;100464.91;5073978;28;20467;-68
2023/04/12 04:08:22;;;;;;;9.77;3.03;;;;;;;1.57;100.00;100455.53;5075737;28;21043;-69
2023/04/12 04:10:49;;;;;;;6.07;1.90;;;;;;;1.60;100.00;100452.38;5070296;28;21049;-69
2023/04/12 04:13:16;;;;;;;6.50;2.37;;;;;;;1.58;100.00;100451.78;5073980;28;20480;-67
2023/04/12 04:15:44;;;;;;;6.13;2.10;;;;;;;1.62;100.00;100452.13;5067153;28;21057;-69
2023/04/12 04:18:10;;;;;;;6.00;2.10;;;;;;;1.59;100.00;100457.94;5074292;28;20881;-68
2023/04/12 04:20:37;;;;;;;5.53;2.03;;;;;;;1.66;100.00;100453.25;5074167;28;20568;-69
2023/04/12 04:23:03;;;;;;;5.50;1.90;;;;;;;1.67;100.00;100465.53;5074065;28;20461;-68
2023/04/12 04:25:30;;;;;;;8.83;2.40;;;;;;;1.66;100.00;100453.25;5074216;28;20828;-68
2023/04/12 04:27:58;;;;;;;6.53;1.90;;;;;;;1.61;100.00;100458.53;5075042;28;20521;-68
2023/04/12 04:30:25;;;;;;;8.27;2.80;;;;;;;1.65;100.00;100465.78;5073733;28;21026;-68
2023/04/12 04:32:53;;;;;;;6.07;1.97;;;;;;;1.70;100.00;100455.19;5074077;28;20460;-68
2023/04/12 04:35:20;;;;;;;8.00;2.53;;;;;;;1.72;100.00;100453.06;5083378;28;20457;-68
2023/04/12 04:37:47;;;;;;;8.80;2.10;;;;;;;1.67;100.00;100453.00;5074698;28;20449;-68
2023/04/12 04:40:14;;;;;;;6.23;2.17;;;;;;;1.71;100.00;100454.13;5078753;28;20473;-67
2023/04/12 04:42:41;;;;;;;12.27;2.73;;;;;;;1.73;100.00;100454.69;5085855;28;20463;-66
2023/04/12 04:45:13;;;;;;;7.23;2.37;;;;;;;1.79;100.00;100452.09;5073859;28;20449;-69
2023/04/12 04:47:40;;;;;;;7.00;2.67;;;;;;;1.79;100.00;100449.44;5086501;28;20530;-69
2023/04/12 04:50:09;;;;;;;5.67;1.80;;;;;;;1.82;100.00;100454.28;5073694;28;20473;-68
2023/04/12 04:52:36;;;;;;;7.83;1.90;;;;;;;1.84;100.00;100434.28;5073960;28;21037;-67
2023/04/12 04:55:03;;;;;;;8.10;2.50;;;;;;;1.73;100.00;100446.69;5074058;28;20441;-67
2023/04/12 04:57:29;;;;;;;6.93;2.27;;;;;;;1.66;100.00;100438.03;5094679;28;20445;-66
2023/04/12 04:59:56;;;;;;;6.20;2.13;;;;;;;1.67;100.00;100431.63;5073920;28;20538;-71
2023/04/12 05:02:23;;;;;;;6.37;2.20;;;;;;;1.72;100.00;100438.91;5073261;28;20453;-68
2023/04/12 05:04:50;;;;;;;6.90;2.47;;;;;;;1.69;100.00;100429.53;5074011;28;20465;-68
2023/04/12 05:07:18;;;;;;;7.07;2.33;;;;;;;1.81;100.00;100440.09;5077056;28;20479;-67
2023/04/12 05:09:45;;;;;;;7.63;2.90;;;;;;;1.86;100.00;100426.00;5074044;28;20948;-67
2023/04/12 05:12:11;;;;;;;6.37;2.10;;;;;;;1.90;100.00;100427.13;5077446;28;20473;-68
2023/04/12 05:14:41;;;;;;;8.30;3.40;;;;;;;1.94;100.00;100423.72;5074298;28;20441;-67
2023/04/12 05:17:07;;;;;;;7.17;3.00;;;;;;;2.08;100.00;100424.19;5072416;28;20462;-68
2023/04/12 05:19:34;;;;;;;9.37;2.53;;;;;;;2.19;100.00;100425.91;5073765;28;21041;-69
2023/04/12 05:22:01;;;;;;;7.07;2.80;;;;;;;2.27;100.00;100420.13;5073055;28;20468;-72
2023/04/12 05:24:29;;;;;;;7.90;3.20;;;;;;;2.40;100.00;100416.25;5073062;28;20457;-71
2023/04/12 05:26:55;;;;;;;8.50;3.93;;;;;;;2.54;100.00;100414.00;5071869;28;20444;-72
2023/04/12 05:29:22;;;;;;;6.90;2.43;;;;;;;2.65;100.00;100414.91;5073757;28;20489;-69
2023/04/12 05:31:49;;;;;;;10.10;3.90;;;;;;;2.74;100.00;100406.16;5092564;28;20912;-68
2023/04/12 05:34:15;;;;;;;9.03;3.23;;;;;;;2.83;100.00;100408.38;5082134;28;20457;-68
2023/04/12 05:36:42;;;;;;;9.27;3.13;;;;;;;2.89;100.00;100405.50;5075736;28;20466;-70
2023/04/12 05:39:09;;;;;;;9.93;3.43;;;;;;;3.00;100.00;100409.88;5073601;28;20459;-71
2023/04/12 05:41:37;;;;;;;12.40;4.03;;;;;;;3.07;100.00;100398.16;5071571;28;20573;-69
2023/04/12 05:44:03;;;;;;;9.10;3.33;;;;;;;3.17;100.00;100398.22;5067539;28;20504;-70
2023/04/12 05:46:30;;;;;;;7.40;3.30;;;;;;;3.32;100.00;100400.19;5073005;28;20533;-70
2023/04/12 05:48:56;;;;;;;9.57;3.33;;;;;;;3.44;100.00;100392.78;5073051;28;20570;-70
2023/04/12 05:51:23;;;;;;;8.33;3.23;;;;;;;3.54;100.00;100385.66;5072122;28;20572;-71
2023/04/12 05:53:50;;;;;;;9.77;4.00;;;;;;;3.64;100.00;100370.69;5072031;28;20454;-69
2023/04/12 05:56:16;;;;;;;17.83;4.30;;;;;;;3.76;100.00;100372.09;5070639;28;20477;-70
2023/04/12 05:58:46;;;;;;;12.33;4.13;;;;;;;3.87;100.00;100362.22;5080744;28;20460;-71
2023/04/12 06:01:13;;;;;;;12.73;4.00;;;;;;;4.03;100.00;100373.81;5092203;28;20487;-71
2023/04/12 06:03:40;;;;;;;13.03;4.77;;;;;;;4.11;100.00;100367.91;5082112;28;20979;-71
2023/04/12 06:06:08;;;;;;;10.53;4.30;;;;;;;4.24;100.00;100364.75;5085701;28;20456;-71
2023/04/12 06:08:36;;;;;;;13.00;4.13;;;;;;;4.31;100.00;100359.16;5072414;28;20493;-71
2023/04/12 06:11:03;;;;;;;38.50;4.63;;;;;;;4.43;100.00;100350.88;5074029;28;20485;-71
2023/04/12 06:13:30;;;;;;;16.17;5.03;;;;;;;4.54;100.00;100347.13;5071827;28;20496;-70
2023/04/12 06:15:58;;;;;;;10.27;4.83;;;;;;;4.68;100.00;100348.19;5074910;28;20485;-71
2023/04/12 06:18:24;;;;;;;9.50;4.07;;;;;;;4.77;100.00;100346.59;5072029;28;20971;-71
2023/04/12 06:20:51;;;;;;;9.93;3.70;;;;;;;4.91;100.00;100338.00;5072419;28;20480;-71
2023/04/12 06:23:18;;;;;;;11.33;3.20;;;;;;;5.01;100.00;100332.63;5071172;28;20804;-71
2023/04/12 06:25:45;;;;;;;9.30;3.73;;;;;;;5.13;100.00;100330.44;5072403;28;20461;-71
2023/04/12 06:28:11;;;;;;;8.43;3.47;;;;;;;5.27;100.00;100328.84;5072554;28;20569;-71
2023/04/12 06:30:38;;;;;;;7.97;3.00;;;;;;;5.40;100.00;100332.00;5071494;28;20488;-71
2023/04/12 06:33:06;;;;;;;8.70;3.20;;;;;;;5.55;100.00;100321.25;5078455;28;20452;-71
2023/04/12 06:35:32;;;;;;;10.10;3.03;;;;;;;5.70;100.00;100317.69;5078587;28;20515;-71
2023/04/12 06:37:59;;;;;;;12.57;3.63;;;;;;;5.81;100.00;100314.69;5073997;28;20461;-71
2023/04/12 06:40:26;;;;;;;12.30;2.90;;;;;;;5.95;100.00;100314.13;5071922;28;20850;-70
2023/04/12 06:42:53;;;;;;;7.13;2.57;;;;;;;6.05;100.00;100308.69;5075191;28;20579;-71
2023/04/12 06:45:19;;;;;;;7.67;3.00;;;;;;;6.17;100.00;100309.16;5077552;28;20536;-71
2023/04/12 06:47:46;;;;;;;13.43;3.63;;;;;;;6.31;100.00;100310.13;5076297;28;20604;-71
2023/04/12 06:50:14;;;;;;;8.63;3.20;;;;;;;6.44;100.00;100307.91;5076613;28;20538;-71
2023/04/12 06:52:40;;;;;;;8.80;2.10;;;;;;;6.55;100.00;100301.34;5074304;28;20457;-71
2023/04/12 06:55:08;;;;;;;18.20;3.03;;;;;;;6.73;100.00;100300.69;5077168;28;20491;-71
2023/04/12 06:57:35;;;;;;;9.83;3.40;;;;;;;6.90;100.00;100300.25;5075198;28;20970;-71
2023/04/12 07:00:03;;;;;;;8.40;3.00;;;;;;;7.04;99.14;100300.41;5075745;28;20560;-71
2023/04/12 07:02:30;;;;;;;13.80;3.10;;;;;;;7.18;98.81;100300.53;5076660;28;20489;-71
2023/04/12 07:04:56;;;;;;;13.37;3.57;;;;;;;7.28;97.13;100292.34;5076173;28;20461;-71
2023/04/12 07:07:24;;;;;;;17.73;2.97;;;;;;;7.40;95.97;100291.94;5083626;28;20457;-71
2023/04/12 07:09:51;;;;;;;8.73;2.60;;;;;;;7.48;94.13;100288.59;5076794;28;20497;-71
2023/04/12 07:12:18;;;;;;;10.53;2.53;;;;;;;7.55;94.12;100286.38;5074628;28;20522;-71
2023/04/12 07:14:45;;;;;;;10.27;3.23;;;;;;;7.62;92.77;100289.53;5075245;28;20475;-71
2023/04/12 07:17:11;;;;;;;8.37;2.50;;;;;;;7.78;88.87;100293.63;5077756;28;20459;-71
2023/04/12 07:19:39;;;;;;;8.60;2.57;;;;;;;7.93;88.51;100283.75;5075930;28;20453;-71
2023/04/12 07:22:06;;;;;;;7.57;2.27;;;;;;;8.04;88.17;100279.78;5074115;28;20468;-71
2023/04/12 07:24:34;;;;;;;5.83;1.47;;;;;;;8.16;87.22;100272.06;5076303;28;20465;-71
2023/04/12 07:27:00;;;;;;;10.17;1.70;;;;;;;8.24;86.37;100268.72;5069978;28;20464;-70
2023/04/12 07:29:27;;;;;;;9.37;2.00;;;;;;;8.39;86.14;100270.41;5076478;28;20489;-71
2023/04/12 07:31:54;;;;;;;4.87;1.33;;;;;;;8.55;84.73;100258.28;5075974;28;20481;-70
2023/04/12 07:34:20;;;;;;;5.20;1.20;;;;;;;8.73;81.79;100256.63;5071175;28;20473;-71
2023/04/12 07:36:47;;;;;;;8.73;1.60;;;;;;;8.87;81.89;100247.75;5075077;28;20488;-71
2023/04/12 07:39:13;;;;;;;5.80;1.30;;;;;;;8.98;79.70;100255.34;5072746;28;20539;-71
2023/04/12 07:41:47;;;;;;;12.60;1.33;;;;;;;9.13;77.80;100250.78;5074579;28;20476;-71
2023/04/12 07:44:13;;;;;;;5.73;1.47;;;;;;;9.29;74.55;100247.47;5074604;28;20493;-71
2023/04/12 07:46:40;;;;;;;5.80;1.30;;;;;;;9.36;75.18;100241.66;5075502;28;20499;-71
2023/04/12 07:49:09;;;;;;;7.73;1.37;;;;;;;9.43;73.76;100235.84;5073406;28;20543;-71
2023/04/12 07:51:36;;;;;;;5.10;1.27;;;;;;;9.45;75.36;100237.16;5074871;28;20485;-71
2023/04/12 07:54:02;;;;;;;11.60;1.07;;;;;;;9.47;74.96;100226.03;5073465;28;20461;-70
2023/04/12 07:56:29;;;;;;;4.90;1.10;;;;;;;9.43;72.27;100222.31;5076019;28;20548;-68
2023/04/12 07:58:57;;;;;;;6.67;1.13;;;;;;;9.56;70.72;100221.50;5075481;28;20560;-68
2023/04/12 08:01:23;;;;;;;7.90;1.00;;;;;;;9.60;70.71;100214.38;5075729;28;20473;-68
2023/04/12 08:03:50;;;;;;;7.20;1.00;;;;;;;9.65;70.56;100219.72;5075977;28;20453;-68
2023/04/12 08:06:17;;;;;;;7.17;1.30;;;;;;;9.83;69.02;100224.16;5073022;28;20468;-69
2023/04/12 08:08:43;;;;;;;4.70;0.97;;;;;;;9.83;70.85;100216.06;5074267;28;20484;-70
2023/04/12 08:11:10;;;;;;;5.00;1.10;;;;;;;9.85;69.92;100218.44;5071850;28;20567;-69
2023/04/12 08:13:37;;;;;;;8.53;1.30;;;;;;;9.92;67.75;100215.34;5063371;28;20469;-69
2023/04/12 08:16:07;;;;;;;4.97;1.00;;;;;;;9.91;66.77;100205.59;5075251;28;20836;-68
2023/04/12 08:18:33;;;;;;;5.27;1.30;;;;;;;9.88;67.88;100207.03;5063955;28;20472;-69
2023/04/12 08:21:00;;;;;;;6.67;1.20;;;;;;;10.01;64.66;100199.97;5071292;28;20982;-69
2023/04/12 08:23:27;;;;;;;4.70;1.27;;;;;;;10.19;62.31;100207.13;5065329;28;20521;-69
2023/04/12 08:26:01;;;;;;;9.80;1.53;;;;;;;10.42;61.33;100194.38;5070327;28;20930;-68
2023/04/12 08:28:28;;;;;;;5.47;1.50;;;;;;;10.56;62.15;100189.69;5064939;28;20510;-69
2023/04/12 08:30:55;;;;;;;7.37;1.23;;;;;;;10.63;63.25;100188.47;5068439;28;20477;-69
2023/04/12 08:33:22;;;;;;;5.63;1.20;;;;;;;10.73;63.20;100185.47;5074090;28;20452;-69
2023/04/12 08:35:49;;;;;;;12.23;1.17;;;;;;;10.77;63.81;100178.31;5072465;28;20460;-69
2023/04/12 08:38:16;;;;;;;4.97;1.37;;;;;;;10.79;61.83;100176.88;5064761;28;20895;-70
2023/04/12 08:40:45;;;;;;;4.77;0.90;;;;;;;10.80;58.88;100177.69;5068365;28;20485;-69
2023/04/12 08:43:12;;;;;;;5.50;1.40;;;;;;;10.88;61.66;100174.22;5071523;28;20546;-69
2023/04/12 08:45:39;;;;;;;8.53;1.00;;;;;;;11.08;58.85;100175.56;5072139;28;20544;-69
2023/04/12 08:48:06;;;;;;;4.67;1.00;;;;;;;11.18;58.19;100159.00;5072944;28;20512;-68
2023/04/12 08:50:34;;;;;;;8.30;1.20;;;;;;;11.26;60.75;100166.38;5074483;28;20587;-69
2023/04/12 08:53:01;;;;;;;6.70;1.23;;;;;;;11.36;60.52;100167.97;5073663;28;20488;-69
2023/04/12 08:55:27;;;;;;;4.87;1.07;;;;;;;11.45;57.88;100163.38;5070861;28;20528;-68
2023/04/12 08:57:55;;;;;;;5.70;1.30;;;;;;;11.58;58.22;100169.75;5069993;28;20522;-69
2023/04/12 09:00:22;;;;;;;4.20;0.90;;;;;;;11.72;57.67;100164.97;5072022;28;20479;-68
2023/04/12 09:02:49;;;;;;;4.67;1.03;;;;;;;11.74;59.02;100159.25;5068977;28;20560;-69
2023/04/12 09:05:16;;;;;;;5.83;1.23;;;;;;;11.74;58.71;100157.34;5070621;28;20958;-69
2023/04/12 09:07:43;;;;;;;8.17;1.30;;;;;;;11.72;59.59;100151.41;5069031;28;20453;-69
2023/04/12 09:10:10;;;;;;;5.00;0.90;;;;;;;11.61;59.12;100155.56;5073510;28;20568;-70
2023/04/12 09:12:45;;;;;;;5.17;1.40;;;;;;;11.62;58.28;100147.09;5073428;28;20496;-70
2023/04/12 09:15:16;;;;;;;6.17;1.00;;;;;;;11.79;56.44;100143.59;5073440;28;20448;-69
2023/04/12 09:17:43;;;;;;;4.40;1.00;;;;;;;11.91;58.00;100145.72;5069421;28;20449;-71
2023/04/12 09:20:24;;;;;;;5.03;1.07;;;;;;;12.04;55.27;100138.50;5073754;28;20574;-69
2023/04/12 09:22:54;;;;;;;6.50;1.50;;;;;;;12.10;55.36;100131.78;5074239;28;20481;-71
2023/04/12 09:25:36;;;;;;;5.47;1.40;;;;;;;12.21;55.54;100124.09;5073575;28;20465;-71
2023/04/12 09:28:05;;;;;;;4.97;1.03;;;;;;;12.21;56.49;100116.75;5073534;28;20445;-71
2023/04/12 09:30:41;;;;;;;7.70;1.33;;;;;;;12.23;56.31;100114.50;5073357;28;20489;-72
2023/04/12 09:33:12;;;;;;;4.70;0.93;;;;;;;12.29;57.18;100110.50;5074789;28;20459;-69
2023/04/12 09:35:39;;;;;;;6.70;1.53;;;;;;;12.31;55.59;100097.41;5077368;28;20462;-68
2023/04/12 09:38:10;;;;;;;5.50;1.37;;;;;;;12.37;53.68;100096.09;5077132;28;20552;-69
2023/04/12 09:40:38;;;;;;;5.00;1.23;;;;;;;12.50;52.35;100097.00;5069448;28;20484;-68
2023/04/12 09:43:05;;;;;;;5.27;1.53;;;;;;;12.57;54.94;100081.00;5073058;28;20461;-70
2023/04/12 09:45:34;;;;;;;5.63;1.20;;;;;;;12.56;54.38;100078.59;5073593;28;20536;-71
2023/04/12 09:48:01;;;;;;;5.77;1.20;;;;;;;12.64;51.83;100080.47;5071959;28;20496;-73
2023/04/12 09:50:31;;;;;;;13.10;1.50;;;;;;;12.75;53.91;100070.84;5082624;28;20493;-72
2023/04/12 09:53:00;;;;;;;7.07;1.23;;;;;;;12.78;53.87;100058.50;5077728;28;20457;-71
2023/04/12 09:55:30;;;;;;;6.30;1.20;;;;;;;12.78;54.78;100048.44;5071710;28;20496;-72
2023/04/12 09:58:00;;;;;;;7.07;1.80;;;;;;;12.78;53.53;100047.63;5084904;28;20484;-72
2023/04/12 10:00:28;;;;;;;5.53;1.20;;;;;;;12.87;52.30;100043.75;5081339;28;20562;-72
2023/04/12 10:02:55;;;;;;;11.23;1.30;;;;;;;13.01;53.75;100040.75;5072992;28;20472;-72
2023/04/12 10:05:24;;;;;;;8.50;1.40;;;;;;;13.08;51.02;100040.25;5074927;28;20553;-72
2023/04/12 10:07:51;;;;;;;6.23;1.00;;;;;;;13.07;51.98;100022.34;5068998;28;20489;-72
2023/04/12 10:10:20;;;;;;;4.70;1.33;;;;;;;13.10;50.31;100022.50;5071472;28;20584;-71
2023/04/12 10:12:49;;;;;;;9.10;1.60;;;;;;;13.21;49.80;100014.72;5072002;28;20457;-71
2023/04/12 10:15:17;;;;;;;7.23;1.40;;;;;;;13.27;51.51;100010.69;5070211;28;20544;-70
2023/04/12 10:17:45;;;;;;;4.60;0.87;;;;;;;13.34;50.05;100010.97;5072274;28;20465;-70
2023/04/12 10:20:12;;;;;;;4.80;1.00;;;;;;;13.55;46.82;100004.69;5066898;28;20614;-71
2023/04/12 10:22:40;;;;;;;5.70;1.10;;;;;;;13.70;46.39;99995.88;5069873;28;20487;-70
2023/04/12 10:25:12;;;;;;;6.70;1.40;;;;;;;13.68;49.48;99995.44;5079569;28;20912;-71
2023/04/12 10:27:41;;;;;;;7.30;1.13;;;;;;;13.74;49.08;99985.13;5074034;28;20453;-72
2023/04/12 10:30:24;;;;;;;4.57;1.07;;;;;;;13.67;48.13;99971.25;5071104;28;20500;-71
2023/04/12 10:33:12;;;;;;;16.33;1.70;;;;;;;13.89;48.52;99982.53;5071984;28;20544;-70
2023/04/12 10:35:56;;;;;;;5.90;1.20;;;;;;;14.20;46.10;99973.03;5069581;28;20819;-70
2023/04/12 10:38:26;;;;;;;4.57;0.97;;;;;;;14.27;48.29;99973.28;5069919;28;20845;-72
2023/04/12 10:41:15;;;;;;;4.90;0.97;;;;;;;14.36;48.29;99963.06;5070436;28;20482;-70
2023/04/12 10:43:42;;;;;;;4.40;0.80;;;;;;;14.36;47.79;99963.06;5069695;28;20457;-72
2023/04/12 10:46:52;;;;;;;8.00;1.53;;;;;;;14.38;46.71;99960.75;5065888;28;20457;-71
2023/04/12 10:49:19;;;;;;;5.67;1.27;;;;;;;14.55;45.47;99948.84;5072861;28;20858;-71
2023/04/12 10:52:12;;;;;;;4.60;1.00;;;;;;;14.64;46.78;99954.19;5072311;28;20480;-71
2023/04/12 10:54:39;;;;;;;6.57;1.10;;;;;;;14.71;45.89;99946.22;5070621;28;20834;-71
2023/04/12 10:57:27;;;;;;;4.97;1.20;;;;;;;14.91;45.40;99932.75;5072247;28;20461;-71
2023/04/12 10:59:58;;;;;;;7.80;1.20;;;;;;;15.07;47.32;99928.97;5071540;28;20477;-71
2023/04/12 11:02:26;;;;;;;6.30;1.20;;;;;;;15.36;44.20;99922.34;5071985;28;20528;-71
2023/04/12 11:05:08;;;;;;;4.63;0.90;;;;;;;15.52;44.50;99916.91;5071361;28;20460;-71
2023/04/12 11:07:42;;;;;;;4.63;0.90;;;;;;;15.79;42.70;99918.00;5071545;28;20543;-71
2023/04/12 11:10:16;;;;;;;5.10;1.10;;;;;;;15.91;44.64;99908.94;5071705;28;20575;-72
2023/04/12 11:12:48;;;;;;;7.60;1.30;;;;;;;15.97;41.63;99901.25;5072393;28;20532;-71
2023/04/12 11:15:15;;;;;;;5.17;1.10;;;;;;;15.95;44.40;99906.28;5071557;28;20446;-71
2023/04/12 11:17:53;;;;;;;4.80;1.40;;;;;;;16.38;41.23;99889.75;5070823;28;20547;-71
2023/04/12 11:20:20;;;;;;;8.27;1.40;;;;;;;17.09;41.80;99895.13;5071273;28;20481;-71
2023/04/12 11:22:48;;;;;;;5.70;1.10;;;;;;;17.82;38.62;99907.78;5067648;28;20539;-71
2023/04/12 11:25:16;;;;;;;5.90;1.37;;;;;;;18.25;38.71;99902.97;5072570;28;20441;-71
2023/04/12 11:27:49;;;;;;;6.00;1.13;;;;;;;19.08;39.23;99904.84;5070828;28;20558;-72
2023/04/12 11:30:15;;;;;;;5.57;1.27;;;;;;;19.89;36.78;99907.63;5074097;28;20481;-71
2023/04/12 11:32:46;;;;;;;8.10;0.90;;;;;;;20.19;35.87;99898.44;5073799;28;20556;-72